YMML/MEL METAR and TAF weather

Enter ICAO airport designator
Station Type Date Time Source
YMML METAR 2019/04/18 14:00 UTC NOAA

YMML 181400Z 17006KT 9999 FEW025 SCT190 12/06 Q1028


Station Type Date Time Source
YMML Decoded METAR 2019/04/18 14:00 UTC NOAA

Melbourne Airport, Australia (YMML) 37-40S 144-50E 141M
Apr 18, 2019 - 10:00 AM EDT / 2019.04.18 1400 UTC
Wind: from the S (170 degrees) at 7 MPH (6 KT):0
Visibility: greater than 7 mile(s):0
Sky conditions: partly cloudy
Temperature: 53 F (12 C)
Dew Point: 42 F (6 C)
Relative Humidity: 66%
Pressure (altimeter): 30.36 in. Hg (1028 hPa)
ob: YMML 181400Z 17006KT 9999 FEW025 SCT190 12/06 Q1028
cycle: 14

Station Type Date Time Source
YMML TAF 2019/04/18 12:33 UTC NOAA

TAF YMML 181114Z 1812/1918 16008KT CAVOK
BECMG 1819/1821 26006KT CAVOK
FM190000 VRB05KT CAVOK
FM190600 15008KT CAVOK
FM191000 35006KT CAVOK

Example: see airport list